Time;durP1;ratioP1;P1;durP2;ratioP2;P2;SDS_P1;SDS_P2;PMS_P1;PMS_P2;Temp;Humidity;BMP_temperature;BMP_pressure;BME280_temperature;BME280_humidity;BME280_pressure;Samples;Min_cycle;Max_cycle;Signal;HPM_P1;HPM_P2
2023/12/18 00:01:37;;;;;;;0.40;0.40;;;;;;;11.70;100.00;101730.03;5017640;28;20041;-77
2023/12/18 00:04:07;;;;;;;0.30;0.30;;;;;;;11.68;100.00;101727.47;4985584;28;20041;-77
2023/12/18 00:06:37;;;;;;;0.40;0.40;;;;;;;11.66;100.00;101721.41;5001708;28;20091;-77
2023/12/18 00:09:04;;;;;;;0.47;0.47;;;;;;;11.68;100.00;101723.94;5017002;28;20033;-78
2023/12/18 00:11:30;;;;;;;0.40;0.40;;;;;;;11.66;100.00;101718.72;5001005;28;20656;-77
2023/12/18 00:13:56;;;;;;;0.30;0.30;;;;;;;11.66;100.00;101713.31;5016866;28;20059;-78
2023/12/18 00:16:23;;;;;;;0.40;0.40;;;;;;;11.65;100.00;101708.94;5000417;28;20090;-78
2023/12/18 00:18:49;;;;;;;0.40;0.40;;;;;;;11.63;100.00;101709.09;5000416;28;20037;-78
2023/12/18 00:21:15;;;;;;;0.40;0.40;;;;;;;11.61;100.00;101711.09;5000944;28;20040;-77
2023/12/18 00:23:41;;;;;;;0.40;0.40;;;;;;;11.63;100.00;101714.47;5016502;28;20490;-78
2023/12/18 00:26:08;;;;;;;0.40;0.40;;;;;;;11.63;100.00;101719.03;5001328;28;20088;-78
2023/12/18 00:28:34;;;;;;;0.32;0.32;;;;;;;11.63;100.00;101719.03;5016723;28;20073;-77
2023/12/18 00:31:00;;;;;;;0.30;0.30;;;;;;;11.64;100.00;101721.56;5016541;28;20121;-78
2023/12/18 00:33:26;;;;;;;0.40;0.40;;;;;;;11.63;100.00;101719.03;5016921;28;20037;-77
2023/12/18 00:35:51;;;;;;;0.38;0.38;;;;;;;11.62;100.00;101711.97;5000692;28;20045;-77
2023/12/18 00:38:17;;;;;;;0.40;0.40;;;;;;;11.64;100.00;101718.00;5016837;28;20033;-77
2023/12/18 00:40:43;;;;;;;0.43;0.43;;;;;;;11.64;100.00;101716.19;5016177;28;20075;-77
2023/12/18 00:43:08;;;;;;;0.30;0.30;;;;;;;11.63;100.00;101711.78;5000540;28;20033;-77
2023/12/18 00:45:34;;;;;;;0.40;0.40;;;;;;;11.65;100.00;101714.34;5000037;28;20180;-78
2023/12/18 00:48:02;;;;;;;0.40;0.40;;;;;;;11.64;100.00;101721.56;5000361;28;20042;-78
2023/12/18 00:50:31;;;;;;;0.40;0.40;;;;;;;11.64;100.00;101726.09;5000232;28;20110;-78
2023/12/18 00:52:56;;;;;;;0.40;0.40;;;;;;;11.63;100.00;101722.56;5033189;28;20037;-77
2023/12/18 00:55:22;;;;;;;0.40;0.40;;;;;;;11.62;100.00;101726.28;5016231;28;20116;-77
2023/12/18 00:57:48;;;;;;;0.30;0.30;;;;;;;11.64;100.00;101726.97;5000036;28;20038;-77
2023/12/18 01:00:15;;;;;;;0.30;0.30;;;;;;;11.62;100.00;101715.50;4999797;28;20029;-77
2023/12/18 01:02:41;;;;;;;0.40;0.40;;;;;;;11.64;100.00;101715.31;4999710;28;20037;-77
2023/12/18 01:05:08;;;;;;;0.32;0.32;;;;;;;11.62;100.00;101698.50;5032884;28;20037;-78
2023/12/18 01:07:34;;;;;;;0.40;0.40;;;;;;;11.60;100.00;101693.25;5033183;28;20038;-78
2023/12/18 01:10:02;;;;;;;0.40;0.40;;;;;;;11.59;100.00;101685.31;4999564;28;20108;-78
2023/12/18 01:12:30;;;;;;;0.30;0.30;;;;;;;11.58;100.00;101694.41;4999796;28;20391;-77
2023/12/18 01:14:56;;;;;;;0.38;0.38;;;;;;;11.56;100.00;101691.88;4999936;28;20044;-77
2023/12/18 01:17:21;;;;;;;0.40;0.40;;;;;;;11.55;100.00;101695.56;5015950;28;20029;-78
2023/12/18 01:19:47;;;;;;;0.40;0.40;;;;;;;11.54;100.00;101696.59;4999651;28;20494;-78
2023/12/18 01:22:13;;;;;;;0.30;0.30;;;;;;;11.51;100.00;101685.28;5015465;28;20037;-78
2023/12/18 01:24:38;;;;;;;0.30;0.30;;;;;;;11.51;100.00;101677.19;4999858;28;20049;-77
2023/12/18 01:27:05;;;;;;;0.40;0.40;;;;;;;11.52;100.00;101686.97;4999968;28;20049;-77
2023/12/18 01:29:31;;;;;;;0.30;0.30;;;;;;;11.50;100.00;101681.75;4999719;28;20040;-78
2023/12/18 01:31:57;;;;;;;0.30;0.30;;;;;;;11.49;100.00;101680.06;5031979;28;20038;-77
2023/12/18 01:34:23;;;;;;;0.30;0.30;;;;;;;11.48;100.00;101677.53;5016078;28;20091;-77
2023/12/18 01:36:49;;;;;;;0.30;0.30;;;;;;;11.48;100.00;101672.13;4999193;28;20046;-78
2023/12/18 01:39:14;;;;;;;0.40;0.40;;;;;;;11.49;100.00;101679.22;5015670;28;20037;-77
2023/12/18 01:41:40;;;;;;;0.40;0.40;;;;;;;11.47;100.00;101675.84;4999803;28;20049;-78
2023/12/18 01:44:11;;;;;;;0.30;0.30;;;;;;;11.40;100.00;101679.16;4999675;28;20052;-77
2023/12/18 01:46:37;;;;;;;0.40;0.40;;;;;;;11.43;100.00;101681.56;5015976;28;20116;-77
2023/12/18 01:49:03;;;;;;;0.30;0.30;;;;;;;11.42;100.00;101685.22;4998743;28;20128;-78
2023/12/18 01:51:30;;;;;;;1.15;1.15;;;;;;;11.43;100.00;101686.06;4999250;28;20041;-78
2023/12/18 01:53:56;;;;;;;0.40;0.40;;;;;;;11.44;100.00;101694.00;4999473;28;20045;-78
2023/12/18 01:56:25;;;;;;;0.30;0.30;;;;;;;11.46;100.00;101696.53;5015349;28;20053;-78
2023/12/18 01:58:59;;;;;;;0.30;0.30;;;;;;;11.45;100.00;101702.91;5015328;28;20037;-78
2023/12/18 02:01:30;;;;;;;;;;;;;;;11.45;100.00;101698.38;4984335;28;20064;-78
2023/12/18 02:03:56;;;;;;;0.40;0.40;;;;;;;11.47;100.00;101692.00;4999735;28;19916;-78
2023/12/18 02:06:22;;;;;;;0.40;0.40;;;;;;;11.47;100.00;101695.53;4999217;28;20038;-78
2023/12/18 02:08:48;;;;;;;0.40;0.40;;;;;;;11.47;100.00;101689.31;4982724;28;20234;-78
2023/12/18 02:11:14;;;;;;;0.40;0.40;;;;;;;11.49;100.00;101682.75;4999505;28;20369;-78
2023/12/18 02:13:40;;;;;;;0.40;0.40;;;;;;;11.51;100.00;101685.28;4999601;28;20037;-78
2023/12/18 02:16:06;;;;;;;0.40;0.40;;;;;;;11.53;100.00;101683.28;5003372;28;20088;-78
2023/12/18 02:18:32;;;;;;;0.40;0.40;;;;;;;11.54;100.00;101688.50;4987062;28;20033;-78
2023/12/18 02:20:58;;;;;;;0.32;0.32;;;;;;;11.54;100.00;101676.91;5035160;28;20034;-78
2023/12/18 02:23:24;;;;;;;0.30;0.30;;;;;;;11.52;100.00;101673.53;5002040;28;20033;-78
2023/12/18 02:25:52;;;;;;;0.40;0.40;;;;;;;11.54;100.00;101677.75;5002708;28;20391;-79
2023/12/18 02:28:18;;;;;;;0.40;0.40;;;;;;;11.55;100.00;101667.81;5018997;28;20369;-78
2023/12/18 02:30:45;;;;;;;0.40;0.40;;;;;;;11.54;100.00;101676.91;5002934;28;20095;-78
2023/12/18 02:33:19;;;;;;;0.32;0.32;;;;;;;11.56;100.00;101675.72;5019887;28;20029;-78
2023/12/18 02:35:45;;;;;;;0.30;0.30;;;;;;;11.54;100.00;101669.66;5002606;28;20057;-79
2023/12/18 02:38:11;;;;;;;0.40;0.40;;;;;;;11.54;100.00;101682.28;5002571;28;20072;-79
2023/12/18 02:40:55;;;;;;;0.30;0.30;;;;;;;11.55;100.00;101697.44;5002796;28;20136;-78
2023/12/18 02:43:20;;;;;;;0.40;0.40;;;;;;;11.52;100.00;101695.06;5018602;28;20369;-79
2023/12/18 02:45:55;;;;;;;0.40;0.40;;;;;;;11.50;100.00;101689.81;5019069;28;20032;-78
2023/12/18 02:48:20;;;;;;;0.30;0.30;;;;;;;11.49;100.00;101690.00;5019049;28;20099;-78
2023/12/18 02:50:49;;;;;;;0.50;0.50;;;;;;;11.47;100.00;101686.63;5018302;28;20025;-79
2023/12/18 02:53:20;;;;;;;0.40;0.40;;;;;;;11.48;100.00;101683.75;5018317;28;20465;-78
2023/12/18 02:55:46;;;;;;;0.40;0.40;;;;;;;11.50;100.00;101680.91;5002909;28;20026;-79
2023/12/18 02:58:29;;;;;;;0.40;0.40;;;;;;;11.48;100.00;101686.44;5002662;28;20033;-79
2023/12/18 03:00:55;;;;;;;0.38;0.38;;;;;;;11.47;100.00;101692.84;5001955;28;20029;-79
2023/12/18 03:03:21;;;;;;;0.30;0.30;;;;;;;11.46;100.00;101685.78;5002458;28;20032;-78
2023/12/18 03:05:46;;;;;;;0.30;0.30;;;;;;;11.45;100.00;101684.91;5018080;28;20029;-79
2023/12/18 03:08:12;;;;;;;0.32;0.32;;;;;;;11.45;100.00;101690.28;5001846;28;20080;-79
2023/12/18 03:10:52;;;;;;;0.43;0.43;;;;;;;11.45;100.00;101673.28;5002272;28;20069;-79
2023/12/18 03:13:18;;;;;;;0.30;0.30;;;;;;;11.45;100.00;101679.53;5001950;28;20091;-79
2023/12/18 03:15:43;;;;;;;0.43;0.43;;;;;;;11.44;100.00;101674.31;5001865;28;20025;-78
2023/12/18 03:18:09;;;;;;;0.40;0.40;;;;;;;11.42;100.00;101670.94;5002100;28;20087;-79
2023/12/18 03:20:35;;;;;;;0.40;0.40;;;;;;;11.42;100.00;101666.38;5018233;28;20460;-79
2023/12/18 03:23:03;;;;;;;0.40;0.40;;;;;;;11.41;100.00;101662.00;5018434;28;20029;-79
2023/12/18 03:25:29;;;;;;;0.40;0.40;;;;;;;11.41;100.00;101667.41;5016933;28;20490;-79
2023/12/18 03:27:55;;;;;;;0.40;0.40;;;;;;;11.40;100.00;101667.53;5002116;28;20041;-79
2023/12/18 03:30:21;;;;;;;0.40;0.40;;;;;;;11.37;100.00;101659.78;5001906;28;20041;-79
2023/12/18 03:32:46;;;;;;;0.40;0.40;;;;;;;11.36;100.00;101667.03;5017395;28;20030;-79
2023/12/18 03:35:12;;;;;;;0.30;0.30;;;;;;;11.33;100.00;101664.66;5001838;28;20071;-79
2023/12/18 03:37:37;;;;;;;0.40;0.40;;;;;;;11.31;100.00;101674.72;5034614;28;20037;-79
2023/12/18 03:40:04;;;;;;;0.30;0.30;;;;;;;11.30;100.00;101678.44;5001394;28;20487;-79
2023/12/18 03:42:29;;;;;;;0.30;0.30;;;;;;;11.27;100.00;101662.56;5001619;28;20072;-78
2023/12/18 03:44:55;;;;;;;0.40;0.40;;;;;;;11.28;100.00;101666.13;5017649;28;20114;-78
2023/12/18 03:47:21;;;;;;;0.40;0.40;;;;;;;11.25;100.00;101661.91;5001807;28;20040;-79
2023/12/18 03:49:46;;;;;;;0.32;0.32;;;;;;;11.22;100.00;101657.69;5001644;28;20048;-78
2023/12/18 03:52:12;;;;;;;0.30;0.30;;;;;;;11.22;100.00;101652.31;5001252;28;20034;-79
2023/12/18 03:54:38;;;;;;;0.38;0.38;;;;;;;11.22;100.00;101652.31;5001648;28;20361;-79
2023/12/18 03:57:03;;;;;;;0.40;0.40;;;;;;;11.21;100.00;101647.91;5017790;28;20383;-79
2023/12/18 03:59:29;;;;;;;0.40;0.40;;;;;;;11.21;100.00;101647.06;5034014;28;20040;-79
2023/12/18 04:01:57;;;;;;;0.40;0.40;;;;;;;11.23;100.00;101653.13;5001030;28;20120;-78
2023/12/18 04:04:23;;;;;;;0.32;0.32;;;;;;;11.23;100.00;101655.84;5017460;28;20033;-78
2023/12/18 04:06:49;;;;;;;0.40;0.40;;;;;;;11.20;100.00;101646.22;5001056;28;20399;-78
2023/12/18 04:09:15;;;;;;;0.40;0.40;;;;;;;11.20;100.00;101643.53;5017518;28;20041;-78
2023/12/18 04:11:40;;;;;;;0.35;0.35;;;;;;;11.18;100.00;101650.06;5017195;28;20037;-79
2023/12/18 04:14:06;;;;;;;0.40;0.40;;;;;;;11.16;100.00;101652.06;5000901;28;20484;-79
2023/12/18 04:16:35;;;;;;;0.43;0.43;;;;;;;11.14;100.00;101637.91;5000360;28;20036;-79
2023/12/18 04:19:00;;;;;;;0.40;0.40;;;;;;;11.13;100.00;101642.47;5000778;28;20496;-79
2023/12/18 04:21:26;;;;;;;0.40;0.40;;;;;;;11.11;100.00;101638.25;5033514;28;20036;-79
2023/12/18 04:23:52;;;;;;;0.38;0.38;;;;;;;11.11;100.00;101633.69;5017122;28;20095;-79
2023/12/18 04:26:18;;;;;;;0.30;0.30;;;;;;;11.13;100.00;101638.94;5033511;28;20527;-79
2023/12/18 04:28:43;;;;;;;0.30;0.30;;;;;;;11.12;100.00;101630.03;5000582;28;20022;-79
2023/12/18 04:31:10;;;;;;;0.30;0.30;;;;;;;11.12;100.00;101631.88;5000144;28;20049;-79
2023/12/18 04:33:38;;;;;;;0.47;0.47;;;;;;;11.11;100.00;101625.63;5016945;28;20037;-79
2023/12/18 04:36:05;;;;;;;0.40;0.40;;;;;;;11.10;100.00;101618.56;5032551;28;20495;-78
2023/12/18 04:39:21;;;;;;;0.40;0.40;;;;;;;11.11;100.00;101632.84;5015892;28;20472;-79
2023/12/18 04:41:50;;;;;;;0.40;0.40;;;;;;;11.09;100.00;101626.81;5017237;28;20049;-79
2023/12/18 04:44:16;;;;;;;0.40;0.40;;;;;;;11.10;100.00;101626.63;5016505;28;20041;-79
2023/12/18 04:46:56;;;;;;;0.30;0.30;;;;;;;11.10;100.00;101621.25;5016770;28;20025;-79
2023/12/18 04:49:47;;;;;;;0.40;0.40;;;;;;;11.08;100.00;101614.34;5022275;28;20488;-79
2023/12/18 04:52:13;;;;;;;0.40;0.40;;;;;;;11.09;100.00;101630.34;5000584;28;20111;-79
2023/12/18 04:54:41;;;;;;;0.40;0.40;;;;;;;11.04;100.00;101621.91;5016015;28;20111;-79
2023/12/18 04:57:06;;;;;;;0.30;0.30;;;;;;;11.02;100.00;101615.81;4999944;28;20429;-79
2023/12/18 04:59:32;;;;;;;0.38;0.38;;;;;;;10.99;100.00;101603.53;5032467;28;20163;-79
2023/12/18 05:01:58;;;;;;;0.40;0.40;;;;;;;11.01;100.00;101619.53;5016637;28;20087;-78
2023/12/18 05:04:34;;;;;;;0.30;0.30;;;;;;;11.00;100.00;101620.50;5016438;28;20499;-79
2023/12/18 05:06:59;;;;;;;0.40;0.40;;;;;;;10.98;100.00;101615.31;5000820;28;20041;-79
2023/12/18 05:09:25;;;;;;;0.40;0.40;;;;;;;10.94;100.00;101613.91;5032544;28;20037;-78
2023/12/18 05:11:53;;;;;;;0.40;0.40;;;;;;;10.98;100.00;101609.91;5016914;28;20034;-79
2023/12/18 05:14:19;;;;;;;0.40;0.40;;;;;;;10.99;100.00;101598.13;4999719;28;20038;-79
2023/12/18 05:16:44;;;;;;;0.40;0.40;;;;;;;10.99;100.00;101595.44;4999475;28;20491;-79
2023/12/18 05:19:10;;;;;;;0.30;0.30;;;;;;;10.96;100.00;101590.38;5032028;28;20032;-79
2023/12/18 05:21:35;;;;;;;0.40;0.40;;;;;;;10.89;100.00;101581.25;5016070;28;20040;-79
2023/12/18 05:24:01;;;;;;;0.40;0.40;;;;;;;10.90;100.00;101587.47;5016449;28;20029;-79
2023/12/18 05:26:27;;;;;;;0.38;0.38;;;;;;;10.81;100.00;101588.44;5016692;28;20475;-78
2023/12/18 05:28:53;;;;;;;0.45;0.45;;;;;;;10.77;100.00;101593.28;5032091;28;20034;-79
2023/12/18 05:31:20;;;;;;;0.40;0.40;;;;;;;10.74;100.00;101590.88;5015935;28;20502;-79
2023/12/18 05:33:48;;;;;;;0.38;0.38;;;;;;;10.69;100.00;101601.25;5016574;28;20025;-79
2023/12/18 05:36:17;;;;;;;0.40;0.40;;;;;;;10.70;100.00;101592.22;5000157;28;20095;-78
2023/12/18 05:38:43;;;;;;;0.50;0.50;;;;;;;10.67;100.00;101588.00;5031660;28;20033;-79
2023/12/18 05:41:09;;;;;;;0.40;0.40;;;;;;;10.69;100.00;101595.88;5015637;28;20041;-79
2023/12/18 05:43:34;;;;;;;0.30;0.30;;;;;;;10.71;100.00;101601.97;4999834;28;20048;-79
2023/12/18 05:46:00;;;;;;;0.40;0.40;;;;;;;10.71;100.00;101600.09;4999261;28;20435;-79
2023/12/18 05:48:26;;;;;;;0.40;0.40;;;;;;;10.73;100.00;101603.50;4999248;28;20072;-79
2023/12/18 05:50:51;;;;;;;0.40;0.40;;;;;;;10.72;100.00;101599.13;5015538;28;20388;-78
2023/12/18 05:53:17;;;;;;;0.40;0.40;;;;;;;10.72;100.00;101606.38;4999620;28;20056;-79
2023/12/18 05:55:43;;;;;;;0.40;0.40;;;;;;;10.74;100.00;101610.59;4999557;28;20029;-78
2023/12/18 05:58:08;;;;;;;0.38;0.38;;;;;;;10.75;100.00;101631.09;4999221;28;20041;-79
2023/12/18 06:00:36;;;;;;;0.38;0.38;;;;;;;10.74;100.00;101615.09;5015672;28;20037;-79
2023/12/18 06:03:01;;;;;;;0.40;0.40;;;;;;;10.73;100.00;101613.41;5015908;28;20033;-78
2023/12/18 06:05:27;;;;;;;0.40;0.40;;;;;;;10.72;100.00;101617.13;4999353;28;20034;-79
2023/12/18 06:07:52;;;;;;;0.35;0.35;;;;;;;10.69;100.00;101623.66;5015959;28;20447;-79
2023/12/18 06:10:18;;;;;;;0.40;0.40;;;;;;;10.70;100.00;101629.88;4999118;28;20033;-78
2023/12/18 06:12:44;;;;;;;0.40;0.40;;;;;;;10.71;100.00;101623.47;5032014;28;20083;-78
2023/12/18 06:15:10;;;;;;;0.40;0.40;;;;;;;10.73;100.00;101624.19;4998311;28;20041;-79
2023/12/18 06:17:36;;;;;;;0.40;0.40;;;;;;;10.74;100.00;101613.28;5015117;28;20032;-79
2023/12/18 06:20:03;;;;;;;0.40;0.40;;;;;;;10.74;100.00;101609.72;4998907;28;20033;-79
2023/12/18 06:22:30;;;;;;;0.30;0.30;;;;;;;10.74;100.00;101615.09;5031672;28;20033;-79
2023/12/18 06:24:57;;;;;;;0.40;0.40;;;;;;;10.72;100.00;101615.25;5015047;28;20032;-79
2023/12/18 06:27:23;;;;;;;0.40;0.40;;;;;;;10.71;100.00;101610.88;5015616;28;20124;-79
2023/12/18 06:29:52;;;;;;;0.40;0.40;;;;;;;10.70;100.00;101611.03;5015225;28;20118;-79
2023/12/18 06:32:17;;;;;;;0.38;0.38;;;;;;;10.67;100.00;101614.06;5015450;28;20064;-79
2023/12/18 06:34:44;;;;;;;0.35;0.35;;;;;;;10.65;100.00;101619.56;5014916;28;20456;-79
2023/12/18 06:37:09;;;;;;;0.40;0.40;;;;;;;10.66;100.00;101617.72;5015449;28;20191;-79
2023/12/18 06:39:35;;;;;;;0.30;0.30;;;;;;;10.65;100.00;101610.66;4998845;28;20128;-79
2023/12/18 06:42:01;;;;;;;0.30;0.30;;;;;;;10.66;100.00;101615.88;4999458;28;20436;-79
2023/12/18 06:44:27;;;;;;;0.40;0.40;;;;;;;10.63;100.00;101612.66;5015171;28;20045;-79
2023/12/18 06:46:52;;;;;;;0.32;0.32;;;;;;;10.64;100.00;101614.34;5015489;28;20025;-77
2023/12/18 06:49:18;;;;;;;0.40;0.40;;;;;;;10.63;100.00;101609.97;5015375;28;20368;-77
2023/12/18 06:51:44;;;;;;;0.32;0.32;;;;;;;10.63;100.00;101601.91;4999060;28;20384;-77
2023/12/18 06:54:12;;;;;;;0.40;0.40;;;;;;;10.65;100.00;101613.34;4998858;28;20036;-77
2023/12/18 07:00:19;;;;;;;0.30;0.30;;;;;;;10.61;100.00;101595.81;5031500;28;20111;-77
2023/12/18 07:02:45;;;;;;;0.40;0.40;;;;;;;10.65;100.00;101599.91;5018362;28;20396;-76
2023/12/18 07:05:13;;;;;;;0.30;0.30;;;;;;;10.68;100.00;101610.34;5034718;28;20033;-77
2023/12/18 07:07:38;;;;;;;0.30;0.30;;;;;;;10.67;100.00;101614.88;5002613;28;20044;-77
2023/12/18 07:10:04;;;;;;;0.40;0.40;;;;;;;10.68;100.00;101611.19;5002114;28;20033;-76
2023/12/18 07:12:32;;;;;;;0.40;0.40;;;;;;;10.68;100.00;101611.19;5001970;28;20041;-77
2023/12/18 07:14:58;;;;;;;0.40;0.40;;;;;;;10.70;100.00;101621.81;5001818;28;20037;-78
2023/12/18 07:17:24;;;;;;;0.40;0.40;;;;;;;10.67;100.00;101622.97;5001707;28;20033;-77
2023/12/18 07:19:49;;;;;;;0.40;0.40;;;;;;;10.68;100.00;101621.09;5018364;28;20041;-77
2023/12/18 07:22:15;;;;;;;0.40;0.40;;;;;;;10.68;100.00;101632.69;5001704;28;20483;-77
2023/12/18 07:24:41;;;;;;;0.30;0.30;;;;;;;10.67;100.00;101620.25;5001872;28;20388;-78
2023/12/18 07:27:07;;;;;;;0.30;0.30;;;;;;;10.65;100.00;101618.72;5034681;28;20124;-77
2023/12/18 07:29:33;;;;;;;0.40;0.40;;;;;;;10.68;100.00;101621.09;5034570;28;20119;-77
2023/12/18 07:31:59;;;;;;;0.30;0.30;;;;;;;10.71;100.00;101626.16;5001376;28;20650;-78
2023/12/18 07:34:24;;;;;;;0.30;0.30;;;;;;;10.71;100.00;101620.78;5018104;28;20045;-77
2023/12/18 07:36:50;;;;;;;0.50;0.50;;;;;;;10.71;100.00;101627.00;5001204;28;20037;-77
2023/12/18 07:39:18;;;;;;;0.38;0.38;;;;;;;10.72;100.00;101619.81;5017853;28;20045;-77
2023/12/18 07:41:44;;;;;;;0.40;0.40;;;;;;;10.69;100.00;101615.59;5017875;28;20025;-77
2023/12/18 07:44:10;;;;;;;0.40;0.40;;;;;;;10.69;100.00;101620.97;5001692;28;20041;-77
2023/12/18 07:46:36;;;;;;;0.40;0.40;;;;;;;10.73;100.00;101616.94;5033556;28;20117;-77
2023/12/18 07:49:05;;;;;;;0.38;0.38;;;;;;;10.75;100.00;101619.50;5001482;28;20462;-77
2023/12/18 07:51:36;;;;;;;0.30;0.30;;;;;;;10.74;100.00;101623.16;5033772;28;20495;-77
2023/12/18 07:54:03;;;;;;;0.30;0.30;;;;;;;10.78;100.00;101613.78;5017887;28;20033;-77
2023/12/18 07:56:29;;;;;;;0.30;0.30;;;;;;;10.78;100.00;101616.47;5033385;28;20037;-77
2023/12/18 07:58:55;;;;;;;0.30;0.30;;;;;;;10.79;100.00;101618.16;5001357;28;20498;-77
2023/12/18 08:01:32;;;;;;;0.38;0.38;;;;;;;10.80;100.00;101609.09;5001112;28;20044;-77
2023/12/18 08:04:01;;;;;;;0.40;0.40;;;;;;;10.78;100.00;101601.19;5032828;28;20029;-77
2023/12/18 08:06:53;;;;;;;0.40;0.40;;;;;;;10.82;100.00;101601.69;5012688;28;20053;-77
2023/12/18 08:09:19;;;;;;;0.30;0.30;;;;;;;10.85;100.00;101574.50;5001665;28;20480;-79
2023/12/18 08:11:45;;;;;;;0.45;0.45;;;;;;;10.87;100.00;101574.34;5033448;28;20033;-78
2023/12/18 08:14:14;;;;;;;0.40;0.40;;;;;;;10.89;100.00;101588.47;5032986;28;20041;-78
2023/12/18 08:16:39;;;;;;;0.63;0.63;;;;;;;10.90;100.00;101584.78;5000791;28;20507;-78
2023/12/18 08:19:08;;;;;;;0.40;0.40;;;;;;;10.92;100.00;101589.00;5017588;28;20033;-78
2023/12/18 08:21:39;;;;;;;0.40;0.40;;;;;;;10.92;100.00;101590.84;5019142;28;20422;-78
2023/12/18 08:24:06;;;;;;;0.40;0.40;;;;;;;10.93;100.00;101598.78;5017138;28;20476;-78
2023/12/18 08:26:32;;;;;;;0.30;0.30;;;;;;;10.97;100.00;101581.31;5001177;28;20472;-78
2023/12/18 08:28:58;;;;;;;0.32;0.32;;;;;;;10.97;100.00;101578.59;5017175;28;20045;-78
2023/12/18 08:31:23;;;;;;;0.38;0.38;;;;;;;10.99;100.00;101563.16;5000708;28;20042;-78
2023/12/18 08:33:49;;;;;;;0.40;0.40;;;;;;;11.00;100.00;101562.13;5017173;28;20052;-79
2023/12/18 08:36:15;;;;;;;0.40;0.40;;;;;;;11.03;100.00;101581.66;5016968;28;20056;-79
2023/12/18 08:38:41;;;;;;;0.40;0.40;;;;;;;11.04;100.00;101570.75;5016475;28;20071;-78
2023/12/18 08:41:07;;;;;;;0.40;0.40;;;;;;;11.03;100.00;101573.59;5000510;28;20064;-79
2023/12/18 08:43:32;;;;;;;0.30;0.30;;;;;;;11.08;100.00;101576.66;5016976;28;20041;-79
2023/12/18 08:45:58;;;;;;;0.40;0.40;;;;;;;11.10;100.00;101588.94;5000608;28;20033;-79
2023/12/18 08:48:27;;;;;;;0.40;0.40;;;;;;;11.10;100.00;101575.50;5001247;28;20041;-78
2023/12/18 08:50:53;;;;;;;0.38;0.38;;;;;;;11.12;100.00;101575.34;5000913;28;20480;-78
2023/12/18 08:53:19;;;;;;;0.30;0.30;;;;;;;11.11;100.00;101574.47;5000545;28;20034;-78
2023/12/18 08:55:46;;;;;;;0.40;0.40;;;;;;;11.15;100.00;101580.41;5032430;28;20033;-78
2023/12/18 08:58:11;;;;;;;0.30;0.30;;;;;;;11.14;100.00;101582.25;5016511;28;20384;-78
2023/12/18 09:00:40;;;;;;;0.40;0.40;;;;;;;11.15;100.00;101586.63;5000058;28;20388;-79
2023/12/18 09:03:06;;;;;;;0.30;0.30;;;;;;;11.17;100.00;101583.78;5000491;28;20090;-78
2023/12/18 09:05:32;;;;;;;0.40;0.40;;;;;;;11.19;100.00;101582.63;5015998;28;20033;-79
2023/12/18 09:07:57;;;;;;;0.30;0.30;;;;;;;11.21;100.00;101575.22;4999766;28;20052;-78
2023/12/18 09:10:25;;;;;;;0.30;0.30;;;;;;;11.22;100.00;101581.47;5000045;28;20130;-78
2023/12/18 09:12:53;;;;;;;0.35;0.35;;;;;;;11.21;100.00;101577.91;5016002;28;20029;-78
2023/12/18 09:15:20;;;;;;;0.40;0.40;;;;;;;11.19;100.00;101573.69;5032119;28;20036;-79
2023/12/18 09:17:49;;;;;;;0.40;0.40;;;;;;;11.25;100.00;101578.44;5032365;28;20472;-77
2023/12/18 09:20:15;;;;;;;0.40;0.40;;;;;;;11.24;100.00;101574.06;4999613;28;20029;-79
2023/12/18 09:22:45;;;;;;;0.40;0.40;;;;;;;11.28;100.00;101586.19;5016670;28;20033;-79
2023/12/18 09:25:11;;;;;;;0.40;0.40;;;;;;;11.28;100.00;101586.19;4999950;28;20087;-80
2023/12/18 09:27:36;;;;;;;0.35;0.35;;;;;;;11.29;100.00;101593.25;5016062;28;20529;-80
2023/12/18 09:30:03;;;;;;;0.32;0.32;;;;;;;11.30;100.00;101599.50;5000120;28;20033;-79
2023/12/18 09:32:31;;;;;;;0.35;0.35;;;;;;;11.31;100.00;101602.03;5016422;28;20029;-79
2023/12/18 09:34:57;;;;;;;0.40;0.40;;;;;;;11.31;100.00;101587.72;5027534;28;20037;-79
2023/12/18 09:37:25;;;;;;;0.40;0.40;;;;;;;11.32;100.00;101595.63;4999540;28;20396;-79
2023/12/18 09:39:51;;;;;;;0.40;0.40;;;;;;;11.35;100.00;101597.16;5000030;28;20029;-78
2023/12/18 09:42:16;;;;;;;0.32;0.32;;;;;;;11.39;100.00;101585.91;4999437;28;20140;-79
2023/12/18 09:44:44;;;;;;;0.30;0.30;;;;;;;11.43;100.00;101589.13;5015886;28;20029;-78
2023/12/18 09:47:12;;;;;;;0.40;0.40;;;;;;;11.44;100.00;101591.66;5032589;28;20095;-79
2023/12/18 09:49:38;;;;;;;0.40;0.40;;;;;;;11.45;100.00;101597.88;4999488;28;20464;-78
2023/12/18 09:52:08;;;;;;;0.43;0.43;;;;;;;11.50;100.00;101600.09;4999860;28;20091;-78
2023/12/18 09:54:37;;;;;;;0.40;0.40;;;;;;;11.51;100.00;101593.69;5015561;28;20037;-79
2023/12/18 09:57:06;;;;;;;0.30;0.30;;;;;;;11.53;100.00;101594.38;4999679;28;20080;-80
2023/12/18 09:59:32;;;;;;;0.35;0.35;;;;;;;11.52;100.00;101598.09;5014803;28;20072;-80
2023/12/18 10:01:58;;;;;;;0.40;0.40;;;;;;;11.54;100.00;101617.66;4999618;28;20068;-80
2023/12/18 10:04:24;;;;;;;0.50;0.50;;;;;;;11.56;100.00;101613.75;4999115;28;20045;-80
2023/12/18 10:06:51;;;;;;;0.40;0.40;;;;;;;11.57;100.00;101612.78;4999563;28;20041;-80
2023/12/18 10:09:21;;;;;;;0.38;0.38;;;;;;;11.63;100.00;101613.97;4999001;28;20430;-79
2023/12/18 10:11:58;;;;;;;0.30;0.30;;;;;;;11.64;100.00;101608.44;5032061;28;20457;-79
2023/12/18 10:14:24;;;;;;;0.40;0.40;;;;;;;11.70;100.00;101615.03;4999344;28;20128;-79
2023/12/18 10:17:01;;;;;;;0.40;0.40;;;;;;;11.72;100.00;101606.75;5015016;28;20133;-79
2023/12/18 10:19:28;;;;;;;0.40;0.40;;;;;;;11.73;100.00;101614.69;5031630;28;20040;-80
2023/12/18 10:21:57;;;;;;;0.40;0.40;;;;;;;11.72;100.00;101607.59;4999233;28;20034;-78
2023/12/18 10:24:26;;;;;;;0.30;0.30;;;;;;;11.77;100.00;101610.66;5015195;28;20044;-78
2023/12/18 10:26:52;;;;;;;0.32;0.32;;;;;;;11.78;100.00;101616.91;5015571;28;20033;-81
2023/12/18 10:29:20;;;;;;;0.40;0.40;;;;;;;11.80;100.00;101604.09;5015484;28;20175;-78
2023/12/18 10:31:47;;;;;;;0.38;0.38;;;;;;;11.81;100.00;101603.94;5015538;28;20029;-78
2023/12/18 10:34:17;;;;;;;0.30;0.30;;;;;;;11.82;100.00;101611.00;5015185;28;20060;-81
2023/12/18 10:36:43;;;;;;;0.40;0.40;;;;;;;11.82;100.00;101620.94;5018576;28;20041;-80
2023/12/18 10:39:09;;;;;;;0.40;0.40;;;;;;;11.83;100.00;101623.50;5019235;28;20037;-80
2023/12/18 10:41:39;;;;;;;0.30;0.30;;;;;;;11.83;100.00;101628.88;5002537;28;20511;-80
2023/12/18 10:44:07;;;;;;;0.40;0.40;;;;;;;11.83;100.00;101626.19;5019706;28;20040;-80
2023/12/18 10:46:34;;;;;;;0.35;0.35;;;;;;;11.84;100.00;101627.03;5001643;28;20037;-81
2023/12/18 10:49:01;;;;;;;0.40;0.40;;;;;;;11.87;100.00;101621.34;5035174;28;20036;-80
2023/12/18 10:51:27;;;;;;;0.40;0.40;;;;;;;11.88;100.00;101621.19;5002768;28;20056;-80
2023/12/18 10:53:54;;;;;;;0.32;0.32;;;;;;;11.91;100.00;101616.44;5019036;28;20087;-80
2023/12/18 10:56:21;;;;;;;0.40;0.40;;;;;;;11.95;100.00;101617.81;5002460;28;20029;-80
2023/12/18 10:58:49;;;;;;;0.40;0.40;;;;;;;11.96;100.00;101619.50;5002927;28;20033;-79
2023/12/18 11:01:17;;;;;;;0.40;0.40;;;;;;;11.97;100.00;101613.97;5017125;28;20484;-80
2023/12/18 11:03:43;;;;;;;0.30;0.30;;;;;;;11.99;100.00;101622.72;5017971;28;20025;-80
2023/12/18 11:06:10;;;;;;;0.40;0.40;;;;;;;12.01;100.00;101615.34;5018143;28;20036;-80
2023/12/18 11:08:36;;;;;;;0.40;0.40;;;;;;;12.02;100.00;101616.16;5002077;28;20115;-80
2023/12/18 11:11:02;;;;;;;0.40;0.40;;;;;;;12.05;100.00;101611.28;5002562;28;20452;-80
2023/12/18 11:13:30;;;;;;;0.40;0.40;;;;;;;12.04;100.00;101619.53;5018554;28;20087;-80
2023/12/18 11:16:05;;;;;;;0.30;0.30;;;;;;;12.01;100.00;101626.13;5018386;28;20106;-80
2023/12/18 11:18:34;;;;;;;0.40;0.40;;;;;;;12.01;100.00;101631.50;5001526;28;20037;-80
2023/12/18 11:21:00;;;;;;;0.32;0.32;;;;;;;12.02;100.00;101622.41;5018271;28;20365;-80